sensor_id;sensor_type;location;lat;lon;timestamp;pressure;altitude;pressure_sealevel;temperature;humidity
10668;BME280;5382;42.136;24.796;2023-05-03T00:01:34;100469.88;;;12.83;100.00
10668;BME280;5382;42.136;24.796;2023-05-03T00:04:01;100475.66;;;12.77;100.00
10668;BME280;5382;42.136;24.796;2023-05-03T00:06:28;100475.84;;;12.86;100.00
10668;BME280;5382;42.136;24.796;2023-05-03T00:08:55;100478.03;;;12.93;100.00
10668;BME280;5382;42.136;24.796;2023-05-03T00:11:22;100469.09;;;13.06;100.00
10668;BME280;5382;42.136;24.796;2023-05-03T00:13:49;100458.09;;;13.11;100.00
10668;BME280;5382;42.136;24.796;2023-05-03T00:16:16;100453.75;;;13.10;100.00
10668;BME280;5382;42.136;24.796;2023-05-03T00:18:44;100461.56;;;13.24;100.00
10668;BME280;5382;42.136;24.796;2023-05-03T00:21:11;100462.34;;;13.14;100.00
10668;BME280;5382;42.136;24.796;2023-05-03T00:23:38;100472.69;;;13.05;100.00
10668;BME280;5382;42.136;24.796;2023-05-03T00:26:04;100460.06;;;13.09;100.00
10668;BME280;5382;42.136;24.796;2023-05-03T00:28:31;100465.31;;;13.22;100.00
10668;BME280;5382;42.136;24.796;2023-05-03T00:31:05;100473.63;;;13.17;100.00
10668;BME280;5382;42.136;24.796;2023-05-03T00:33:32;100460.56;;;13.14;100.00
10668;BME280;5382;42.136;24.796;2023-05-03T00:36:07;100459.97;;;12.98;100.00
10668;BME280;5382;42.136;24.796;2023-05-03T00:38:34;100453.88;;;13.08;100.00
10668;BME280;5382;42.136;24.796;2023-05-03T00:41:01;100454.16;;;13.17;100.00
10668;BME280;5382;42.136;24.796;2023-05-03T00:43:29;100449.47;;;13.20;100.00
10668;BME280;5382;42.136;24.796;2023-05-03T00:45:56;100450.22;;;13.22;100.00
10668;BME280;5382;42.136;24.796;2023-05-03T00:48:23;100454.16;;;13.17;100.00
10668;BME280;5382;42.136;24.796;2023-05-03T00:50:50;100458.06;;;13.00;100.00
10668;BME280;5382;42.136;24.796;2023-05-03T00:53:20;100463.25;;;13.01;100.00
10668;BME280;5382;42.136;24.796;2023-05-03T00:55:51;100454.22;;;13.04;100.00
10668;BME280;5382;42.136;24.796;2023-05-03T00:58:18;100463.78;;;13.06;100.00
10668;BME280;5382;42.136;24.796;2023-05-03T01:00:46;100452.88;;;12.85;100.00
10668;BME280;5382;42.136;24.796;2023-05-03T01:03:13;100439.84;;;12.82;100.00
10668;BME280;5382;42.136;24.796;2023-05-03T01:05:49;100433.09;;;12.65;100.00
10668;BME280;5382;42.136;24.796;2023-05-03T01:08:25;100454.03;;;12.57;100.00
10668;BME280;5382;42.136;24.796;2023-05-03T01:11:00;100444.53;;;12.42;100.00
10668;BME280;5382;42.136;24.796;2023-05-03T01:13:35;100438.53;;;12.51;100.00
10668;BME280;5382;42.136;24.796;2023-05-03T01:16:12;100446.63;;;12.50;100.00
10668;BME280;5382;42.136;24.796;2023-05-03T01:18:43;100451.94;;;12.50;100.00
10668;BME280;5382;42.136;24.796;2023-05-03T01:21:15;100450.88;;;12.52;100.00
10668;BME280;5382;42.136;24.796;2023-05-03T01:23:47;100453.31;;;12.55;100.00
10668;BME280;5382;42.136;24.796;2023-05-03T01:26:21;100451.25;;;12.59;100.00
10668;BME280;5382;42.136;24.796;2023-05-03T01:28:49;100439.53;;;12.37;100.00
10668;BME280;5382;42.136;24.796;2023-05-03T01:31:20;100429.56;;;12.28;100.00
10668;BME280;5382;42.136;24.796;2023-05-03T01:33:58;100421.91;;;12.23;100.00
10668;BME280;5382;42.136;24.796;2023-05-03T01:36:29;100439.53;;;12.25;100.00
10668;BME280;5382;42.136;24.796;2023-05-03T01:38:59;100433.28;;;12.26;100.00
10668;BME280;5382;42.136;24.796;2023-05-03T01:41:33;100438.47;;;12.27;100.00
10668;BME280;5382;42.136;24.796;2023-05-03T01:44:01;100441.06;;;12.03;100.00
10668;BME280;5382;42.136;24.796;2023-05-03T01:46:29;100441.88;;;12.04;100.00
10668;BME280;5382;42.136;24.796;2023-05-03T01:48:55;100443.47;;;12.19;100.00
10668;BME280;5382;42.136;24.796;2023-05-03T01:51:22;100438.41;;;12.16;100.00
10668;BME280;5382;42.136;24.796;2023-05-03T01:53:49;100439.78;;;12.09;100.00
10668;BME280;5382;42.136;24.796;2023-05-03T01:56:16;100426.16;;;12.26;100.00
10668;BME280;5382;42.136;24.796;2023-05-03T01:58:44;100428.09;;;12.24;100.00
10668;BME280;5382;42.136;24.796;2023-05-03T02:01:11;100410.97;;;12.28;100.00
10668;BME280;5382;42.136;24.796;2023-05-03T02:03:37;100422.78;;;12.11;100.00
10668;BME280;5382;42.136;24.796;2023-05-03T02:06:04;100413.25;;;12.09;100.00
10668;BME280;5382;42.136;24.796;2023-05-03T02:08:31;100415.38;;;12.04;100.00
10668;BME280;5382;42.136;24.796;2023-05-03T02:10:58;100419.94;;;12.02;100.00
10668;BME280;5382;42.136;24.796;2023-05-03T02:13:24;100423.00;;;11.95;100.00
10668;BME280;5382;42.136;24.796;2023-05-03T02:15:53;100427.66;;;11.92;100.00
10668;BME280;5382;42.136;24.796;2023-05-03T02:18:20;100428.84;;;12.00;100.00
10668;BME280;5382;42.136;24.796;2023-05-03T02:20:48;100426.19;;;12.13;100.00
10668;BME280;5382;42.136;24.796;2023-05-03T02:23:14;100423.00;;;12.08;100.00
10668;BME280;5382;42.136;24.796;2023-05-03T02:25:41;100420.34;;;12.08;100.00
10668;BME280;5382;42.136;24.796;2023-05-03T02:28:08;100436.91;;;12.12;100.00
10668;BME280;5382;42.136;24.796;2023-05-03T02:30:35;100434.78;;;12.04;100.00
10668;BME280;5382;42.136;24.796;2023-05-03T02:33:03;100428.41;;;11.94;100.00
10668;BME280;5382;42.136;24.796;2023-05-03T02:35:30;100428.72;;;11.89;100.00
10668;BME280;5382;42.136;24.796;2023-05-03T02:37:56;100432.03;;;11.93;100.00
10668;BME280;5382;42.136;24.796;2023-05-03T02:40:23;100427.88;;;11.89;100.00
10668;BME280;5382;42.136;24.796;2023-05-03T02:42:50;100428.84;;;11.88;100.00
10668;BME280;5382;42.136;24.796;2023-05-03T02:45:17;100424.47;;;11.87;100.00
10668;BME280;5382;42.136;24.796;2023-05-03T02:47:44;100417.56;;;11.84;100.00
10668;BME280;5382;42.136;24.796;2023-05-03T02:50:12;100412.56;;;11.79;100.00
10668;BME280;5382;42.136;24.796;2023-05-03T02:52:39;100421.81;;;11.87;100.00
10668;BME280;5382;42.136;24.796;2023-05-03T02:55:06;100436.81;;;11.88;100.00
10668;BME280;5382;42.136;24.796;2023-05-03T02:57:33;100441.63;;;11.81;100.00
10668;BME280;5382;42.136;24.796;2023-05-03T03:00:00;100436.94;;;11.72;100.00
10668;BME280;5382;42.136;24.796;2023-05-03T03:02:27;100461.47;;;11.75;100.00
10668;BME280;5382;42.136;24.796;2023-05-03T03:04:53;100456.34;;;11.60;100.00
10668;BME280;5382;42.136;24.796;2023-05-03T03:07:22;100455.81;;;11.54;100.00
10668;BME280;5382;42.136;24.796;2023-05-03T03:09:48;100459.69;;;11.36;100.00
10668;BME280;5382;42.136;24.796;2023-05-03T03:12:15;100465.31;;;11.44;100.00
10668;BME280;5382;42.136;24.796;2023-05-03T03:14:42;100466.34;;;11.29;100.00
10668;BME280;5382;42.136;24.796;2023-05-03T03:17:10;100477.53;;;11.47;100.00
10668;BME280;5382;42.136;24.796;2023-05-03T03:19:37;100467.75;;;11.47;100.00
10668;BME280;5382;42.136;24.796;2023-05-03T03:22:04;100471.69;;;11.42;100.00
10668;BME280;5382;42.136;24.796;2023-05-03T03:24:33;100468.91;;;11.43;100.00
10668;BME280;5382;42.136;24.796;2023-05-03T03:26:59;100462.88;;;11.41;100.00
10668;BME280;5382;42.136;24.796;2023-05-03T03:29:28;100467.00;;;11.45;100.00
10668;BME280;5382;42.136;24.796;2023-05-03T03:31:55;100464.56;;;11.42;100.00
10668;BME280;5382;42.136;24.796;2023-05-03T03:34:22;100478.97;;;11.38;100.00
10668;BME280;5382;42.136;24.796;2023-05-03T03:36:49;100481.22;;;11.44;100.00
10668;BME280;5382;42.136;24.796;2023-05-03T03:39:16;100492.25;;;11.51;100.00
10668;BME280;5382;42.136;24.796;2023-05-03T03:41:44;100493.41;;;11.47;100.00
10668;BME280;5382;42.136;24.796;2023-05-03T03:44:11;100496.06;;;11.47;100.00
10668;BME280;5382;42.136;24.796;2023-05-03T03:46:38;100502.81;;;11.38;100.00
10668;BME280;5382;42.136;24.796;2023-05-03T03:49:04;100502.47;;;11.30;100.00
10668;BME280;5382;42.136;24.796;2023-05-03T03:51:32;100510.75;;;11.38;100.00
10668;BME280;5382;42.136;24.796;2023-05-03T03:53:59;100512.56;;;11.38;100.00
10668;BME280;5382;42.136;24.796;2023-05-03T03:56:25;100510.41;;;11.30;100.00
10668;BME280;5382;42.136;24.796;2023-05-03T03:58:54;100520.44;;;11.39;100.00
10668;BME280;5382;42.136;24.796;2023-05-03T04:01:20;100524.81;;;11.26;100.00
10668;BME280;5382;42.136;24.796;2023-05-03T04:03:47;100521.22;;;11.27;100.00
10668;BME280;5382;42.136;24.796;2023-05-03T04:06:14;100503.16;;;11.19;100.00
10668;BME280;5382;42.136;24.796;2023-05-03T04:08:41;100517.06;;;11.23;100.00
10668;BME280;5382;42.136;24.796;2023-05-03T04:11:11;100539.44;;;11.04;100.00
10668;BME280;5382;42.136;24.796;2023-05-03T04:13:38;100519.19;;;11.03;100.00
10668;BME280;5382;42.136;24.796;2023-05-03T04:16:06;100515.66;;;11.17;100.00
10668;BME280;5382;42.136;24.796;2023-05-03T04:18:33;100529.31;;;11.11;100.00
10668;BME280;5382;42.136;24.796;2023-05-03T04:21:00;100541.88;;;11.07;100.00
10668;BME280;5382;42.136;24.796;2023-05-03T04:23:27;100539.78;;;11.12;100.00
10668;BME280;5382;42.136;24.796;2023-05-03T04:25:53;100553.44;;;11.06;100.00
10668;BME280;5382;42.136;24.796;2023-05-03T04:28:21;100565.34;;;11.13;100.00
10668;BME280;5382;42.136;24.796;2023-05-03T04:30:49;100573.38;;;11.12;100.00
10668;BME280;5382;42.136;24.796;2023-05-03T04:33:17;100585.97;;;10.94;100.00
10668;BME280;5382;42.136;24.796;2023-05-03T04:35:47;100598.75;;;10.87;100.00
10668;BME280;5382;42.136;24.796;2023-05-03T04:38:14;100616.53;;;10.85;100.00
10668;BME280;5382;42.136;24.796;2023-05-03T04:40:41;100620.97;;;10.85;100.00
10668;BME280;5382;42.136;24.796;2023-05-03T04:43:07;100629.19;;;10.80;100.00
10668;BME280;5382;42.136;24.796;2023-05-03T04:45:34;100623.53;;;10.72;100.00
10668;BME280;5382;42.136;24.796;2023-05-03T04:48:01;100629.94;;;10.68;100.00
10668;BME280;5382;42.136;24.796;2023-05-03T04:50:31;100625.47;;;10.68;100.00
10668;BME280;5382;42.136;24.796;2023-05-03T04:52:57;100621.59;;;10.60;100.00
10668;BME280;5382;42.136;24.796;2023-05-03T04:55:24;100627.41;;;10.66;100.00
10668;BME280;5382;42.136;24.796;2023-05-03T04:57:51;100637.41;;;10.76;100.00
10668;BME280;5382;42.136;24.796;2023-05-03T05:00:18;100630.63;;;10.72;100.00
10668;BME280;5382;42.136;24.796;2023-05-03T05:02:45;100636.84;;;10.70;100.00
10668;BME280;5382;42.136;24.796;2023-05-03T05:05:12;100647.03;;;10.62;100.00
10668;BME280;5382;42.136;24.796;2023-05-03T05:07:40;100656.84;;;10.60;100.00
10668;BME280;5382;42.136;24.796;2023-05-03T05:10:08;100647.03;;;10.62;100.00
10668;BME280;5382;42.136;24.796;2023-05-03T05:12:35;100655.63;;;10.66;100.00
10668;BME280;5382;42.136;24.796;2023-05-03T05:15:02;100671.06;;;10.74;100.00
10668;BME280;5382;42.136;24.796;2023-05-03T05:17:29;100669.88;;;10.79;100.00
10668;BME280;5382;42.136;24.796;2023-05-03T05:19:56;100665.69;;;10.75;100.00
10668;BME280;5382;42.136;24.796;2023-05-03T05:22:23;100673.44;;;10.78;100.00
10668;BME280;5382;42.136;24.796;2023-05-03T05:24:51;100667.03;;;10.82;100.00
10668;BME280;5382;42.136;24.796;2023-05-03T05:27:18;100659.06;;;10.97;100.00
10668;BME280;5382;42.136;24.796;2023-05-03T05:29:45;100654.53;;;10.99;100.00
10668;BME280;5382;42.136;24.796;2023-05-03T05:32:12;100655.84;;;10.91;100.00
10668;BME280;5382;42.136;24.796;2023-05-03T05:34:39;100659.19;;;10.95;100.00
10668;BME280;5382;42.136;24.796;2023-05-03T05:37:06;100655.03;;;11.05;100.00
10668;BME280;5382;42.136;24.796;2023-05-03T05:39:33;100637.91;;;11.11;100.00
10668;BME280;5382;42.136;24.796;2023-05-03T05:42:01;100642.91;;;11.16;100.00
10668;BME280;5382;42.136;24.796;2023-05-03T05:44:29;100638.25;;;11.19;100.00
10668;BME280;5382;42.136;24.796;2023-05-03T05:46:56;100632.00;;;11.20;100.00
10668;BME280;5382;42.136;24.796;2023-05-03T05:49:23;100636.09;;;11.11;100.00
10668;BME280;5382;42.136;24.796;2023-05-03T05:51:49;100631.16;;;11.20;100.00
10668;BME280;5382;42.136;24.796;2023-05-03T05:54:16;100639.88;;;11.22;100.00
10668;BME280;5382;42.136;24.796;2023-05-03T05:56:43;100628.09;;;11.40;100.00
10668;BME280;5382;42.136;24.796;2023-05-03T05:59:11;100631.78;;;11.52;100.00
10668;BME280;5382;42.136;24.796;2023-05-03T06:01:38;100633.19;;;11.57;100.00
10668;BME280;5382;42.136;24.796;2023-05-03T06:04:08;100618.72;;;11.76;100.00
10668;BME280;5382;42.136;24.796;2023-05-03T06:06:35;100614.34;;;11.89;100.00
10668;BME280;5382;42.136;24.796;2023-05-03T06:09:02;100619.41;;;12.07;100.00
10668;BME280;5382;42.136;24.796;2023-05-03T06:11:29;100621.03;;;12.22;100.00
10668;BME280;5382;42.136;24.796;2023-05-03T06:13:56;100623.03;;;12.31;100.00
10668;BME280;5382;42.136;24.796;2023-05-03T06:16:24;100619.16;;;12.50;100.00
10668;BME280;5382;42.136;24.796;2023-05-03T06:18:51;100630.94;;;12.58;100.00
10668;BME280;5382;42.136;24.796;2023-05-03T06:21:18;100624.66;;;12.47;100.00
10668;BME280;5382;42.136;24.796;2023-05-03T06:23:45;100630.19;;;12.56;100.00
10668;BME280;5382;42.136;24.796;2023-05-03T06:26:11;100636.56;;;12.54;100.00
10668;BME280;5382;42.136;24.796;2023-05-03T06:28:38;100636.56;;;12.54;100.00
10668;BME280;5382;42.136;24.796;2023-05-03T06:31:05;100631.94;;;12.70;100.00
10668;BME280;5382;42.136;24.796;2023-05-03T06:33:33;100629.81;;;12.75;100.00
10668;BME280;5382;42.136;24.796;2023-05-03T06:36:00;100629.25;;;12.57;100.00
10668;BME280;5382;42.136;24.796;2023-05-03T06:38:27;100620.22;;;12.47;100.00
10668;BME280;5382;42.136;24.796;2023-05-03T06:40:54;100616.41;;;12.64;100.00
10668;BME280;5382;42.136;24.796;2023-05-03T06:43:21;100613.22;;;12.72;100.00
10668;BME280;5382;42.136;24.796;2023-05-03T06:45:50;100609.81;;;12.70;100.00
10668;BME280;5382;42.136;24.796;2023-05-03T06:48:17;100610.16;;;12.65;100.00
10668;BME280;5382;42.136;24.796;2023-05-03T06:50:45;100606.31;;;12.82;100.00
10668;BME280;5382;42.136;24.796;2023-05-03T06:53:12;100606.06;;;12.98;100.00
10668;BME280;5382;42.136;24.796;2023-05-03T06:55:38;100593.53;;;13.00;100.00
10668;BME280;5382;42.136;24.796;2023-05-03T06:58:05;100590.44;;;13.06;100.00
10668;BME280;5382;42.136;24.796;2023-05-03T07:00:34;100594.03;;;13.18;100.00
10668;BME280;5382;42.136;24.796;2023-05-03T07:03:03;100586.22;;;13.53;100.00
10668;BME280;5382;42.136;24.796;2023-05-03T07:05:29;100588.41;;;13.83;100.00
10668;BME280;5382;42.136;24.796;2023-05-03T07:07:58;100588.69;;;13.67;100.00
10668;BME280;5382;42.136;24.796;2023-05-03T07:10:24;100588.81;;;13.66;100.00
10668;BME280;5382;42.136;24.796;2023-05-03T07:12:54;100600.50;;;13.87;100.00
10668;BME280;5382;42.136;24.796;2023-05-03T07:15:20;100596.06;;;13.99;100.00
10668;BME280;5382;42.136;24.796;2023-05-03T07:17:47;100590.75;;;13.99;100.00
10668;BME280;5382;42.136;24.796;2023-05-03T07:20:14;100594.47;;;14.21;100.00
10668;BME280;5382;42.136;24.796;2023-05-03T07:22:41;100592.69;;;13.97;100.00
10668;BME280;5382;42.136;24.796;2023-05-03T07:25:09;100601.06;;;14.04;100.00
10668;BME280;5382;42.136;24.796;2023-05-03T07:27:36;100600.94;;;14.05;100.00
10668;BME280;5382;42.136;24.796;2023-05-03T07:30:04;100609.09;;;14.15;100.00
10668;BME280;5382;42.136;24.796;2023-05-03T07:32:31;100604.78;;;14.01;100.00
10668;BME280;5382;42.136;24.796;2023-05-03T07:34:58;100609.94;;;14.15;100.00
10668;BME280;5382;42.136;24.796;2023-05-03T07:37:25;100609.94;;;14.15;100.00
10668;BME280;5382;42.136;24.796;2023-05-03T07:39:52;100602.53;;;14.08;100.00
10668;BME280;5382;42.136;24.796;2023-05-03T07:42:20;100587.91;;;14.13;100.00
10668;BME280;5382;42.136;24.796;2023-05-03T07:44:47;100592.56;;;14.23;100.00
10668;BME280;5382;42.136;24.796;2023-05-03T07:47:14;100582.41;;;14.28;100.00
10668;BME280;5382;42.136;24.796;2023-05-03T07:49:40;100579.16;;;14.35;100.00
10668;BME280;5382;42.136;24.796;2023-05-03T07:52:07;100583.28;;;14.51;100.00
10668;BME280;5382;42.136;24.796;2023-05-03T07:54:34;100597.06;;;14.45;100.00
10668;BME280;5382;42.136;24.796;2023-05-03T07:57:01;100595.38;;;14.44;100.00
10668;BME280;5382;42.136;24.796;2023-05-03T07:59:29;100572.78;;;14.60;100.00
10668;BME280;5382;42.136;24.796;2023-05-03T08:01:56;100564.31;;;14.78;100.00
10668;BME280;5382;42.136;24.796;2023-05-03T08:04:23;100558.53;;;14.95;100.00
10668;BME280;5382;42.136;24.796;2023-05-03T08:06:50;100572.53;;;15.31;100.00
10668;BME280;5382;42.136;24.796;2023-05-03T08:09:16;100563.28;;;15.46;100.00
10668;BME280;5382;42.136;24.796;2023-05-03T08:11:43;100571.56;;;15.21;100.00
10668;BME280;5382;42.136;24.796;2023-05-03T08:14:10;100573.41;;;14.98;100.00
10668;BME280;5382;42.136;24.796;2023-05-03T08:16:39;100558.28;;;14.53;100.00
10668;BME280;5382;42.136;24.796;2023-05-03T08:19:05;100566.41;;;14.74;100.00
10668;BME280;5382;42.136;24.796;2023-05-03T08:21:32;100575.94;;;14.66;100.00
10668;BME280;5382;42.136;24.796;2023-05-03T08:23:59;100573.72;;;14.48;100.00
10668;BME280;5382;42.136;24.796;2023-05-03T08:26:26;100566.88;;;14.57;100.00
10668;BME280;5382;42.136;24.796;2023-05-03T08:28:54;100573.03;;;14.69;100.00
10668;BME280;5382;42.136;24.796;2023-05-03T08:31:21;100559.59;;;15.04;100.00
10668;BME280;5382;42.136;24.796;2023-05-03T08:33:49;100557.63;;;15.17;100.00
10668;BME280;5382;42.136;24.796;2023-05-03T08:36:16;100551.00;;;15.00;100.00
10668;BME280;5382;42.136;24.796;2023-05-03T08:38:43;100558.34;;;15.19;100.00
10668;BME280;5382;42.136;24.796;2023-05-03T08:41:18;100559.78;;;15.35;100.00
10668;BME280;5382;42.136;24.796;2023-05-03T08:43:51;100553.56;;;14.79;100.00
10668;BME280;5382;42.136;24.796;2023-05-03T08:46:18;100551.72;;;14.91;100.00
10668;BME280;5382;42.136;24.796;2023-05-03T08:48:46;100548.41;;;15.21;100.00
10668;BME280;5382;42.136;24.796;2023-05-03T08:51:15;100547.72;;;15.08;100.00
10668;BME280;5382;42.136;24.796;2023-05-03T08:53:42;100542.69;;;15.37;100.00
10668;BME280;5382;42.136;24.796;2023-05-03T08:56:10;100545.94;;;15.84;100.00
10668;BME280;5382;42.136;24.796;2023-05-03T08:58:37;100540.63;;;16.26;100.00
10668;BME280;5382;42.136;24.796;2023-05-03T09:01:06;100526.22;;;16.69;100.00
10668;BME280;5382;42.136;24.796;2023-05-03T09:03:34;100514.53;;;17.01;100.00
10668;BME280;5382;42.136;24.796;2023-05-03T09:06:02;100510.09;;;17.31;100.00
10668;BME280;5382;42.136;24.796;2023-05-03T09:08:30;100511.22;;;17.48;100.00
10668;BME280;5382;42.136;24.796;2023-05-03T09:10:59;100525.59;;;17.76;100.00
10668;BME280;5382;42.136;24.796;2023-05-03T09:13:29;100533.38;;;17.79;100.00
10668;BME280;5382;42.136;24.796;2023-05-03T09:15:57;100543.53;;;17.85;100.00
10668;BME280;5382;42.136;24.796;2023-05-03T09:18:23;100527.59;;;18.13;100.00
10668;BME280;5382;42.136;24.796;2023-05-03T09:20:51;100519.41;;;17.75;100.00
10668;BME280;5382;42.136;24.796;2023-05-03T09:23:27;100522.09;;;17.56;100.00
10668;BME280;5382;42.136;24.796;2023-05-03T09:25:57;100512.63;;;17.42;100.00
10668;BME280;5382;42.136;24.796;2023-05-03T09:28:24;100519.00;;;17.51;100.00
10668;BME280;5382;42.136;24.796;2023-05-03T09:31:04;100510.53;;;17.65;100.00
10668;BME280;5382;42.136;24.796;2023-05-03T09:33:32;100506.16;;;17.54;100.00
10668;BME280;5382;42.136;24.796;2023-05-03T09:36:00;100504.63;;;17.61;100.00
10668;BME280;5382;42.136;24.796;2023-05-03T09:38:29;100506.59;;;17.59;100.00
10668;BME280;5382;42.136;24.796;2023-05-03T09:40:58;100499.69;;;17.86;100.00
10668;BME280;5382;42.136;24.796;2023-05-03T09:43:26;100500.56;;;17.86;100.00
10668;BME280;5382;42.136;24.796;2023-05-03T09:46:07;100501.63;;;18.13;100.00
10668;BME280;5382;42.136;24.796;2023-05-03T09:48:34;100498.56;;;18.08;100.00
10668;BME280;5382;42.136;24.796;2023-05-03T09:51:02;100502.16;;;18.26;100.00
10668;BME280;5382;42.136;24.796;2023-05-03T09:53:31;100500.44;;;18.35;100.00
10668;BME280;5382;42.136;24.796;2023-05-03T09:56:01;100503.19;;;18.16;100.00
10668;BME280;5382;42.136;24.796;2023-05-03T09:58:28;100505.56;;;18.19;100.00
10668;BME280;5382;42.136;24.796;2023-05-03T10:00:57;100509.09;;;18.19;100.00
10668;BME280;5382;42.136;24.796;2023-05-03T10:03:33;100494.75;;;18.11;100.00
10668;BME280;5382;42.136;24.796;2023-05-03T10:06:02;100509.13;;;18.57;100.00
10668;BME280;5382;42.136;24.796;2023-05-03T10:08:32;100528.94;;;18.83;100.00
10668;BME280;5382;42.136;24.796;2023-05-03T10:11:02;100540.16;;;19.24;100.00
10668;BME280;5382;42.136;24.796;2023-05-03T10:13:30;100532.94;;;18.97;100.00
10668;BME280;5382;42.136;24.796;2023-05-03T10:16:00;100540.28;;;18.58;100.00
10668;BME280;5382;42.136;24.796;2023-05-03T10:18:31;100526.81;;;18.30;100.00
10668;BME280;5382;42.136;24.796;2023-05-03T10:21:01;100514.75;;;17.77;100.00
10668;BME280;5382;42.136;24.796;2023-05-03T10:23:30;100511.25;;;17.77;100.00
10668;BME280;5382;42.136;24.796;2023-05-03T10:26:15;100506.31;;;17.72;100.00
10668;BME280;5382;42.136;24.796;2023-05-03T10:28:41;100494.63;;;17.83;100.00
10668;BME280;5382;42.136;24.796;2023-05-03T10:31:42;100498.31;;;17.82;100.00
10668;BME280;5382;42.136;24.796;2023-05-03T10:34:21;100486.13;;;18.07;100.00
10668;BME280;5382;42.136;24.796;2023-05-03T10:36:48;100479.22;;;18.14;100.00
10668;BME280;5382;42.136;24.796;2023-05-03T10:39:17;100485.69;;;18.12;100.00
10668;BME280;5382;42.136;24.796;2023-05-03T10:41:55;100490.22;;;18.11;100.00
10668;BME280;5382;42.136;24.796;2023-05-03T10:44:26;100485.81;;;18.20;100.00
10668;BME280;5382;42.136;24.796;2023-05-03T10:46:53;100490.34;;;18.19;100.00
10668;BME280;5382;42.136;24.796;2023-05-03T10:49:21;100482.47;;;18.08;100.00
10668;BME280;5382;42.136;24.796;2023-05-03T10:51:49;100480.31;;;18.21;100.00
10668;BME280;5382;42.136;24.796;2023-05-03T10:54:16;100486.72;;;17.91;100.00
10668;BME280;5382;42.136;24.796;2023-05-03T10:56:52;100473.38;;;17.81;100.00
10668;BME280;5382;42.136;24.796;2023-05-03T10:59:20;100471.50;;;17.72;100.00
10668;BME280;5382;42.136;24.796;2023-05-03T11:01:48;100472.94;;;17.86;100.00
10668;BME280;5382;42.136;24.796;2023-05-03T11:04:27;100458.88;;;17.84;100.00
10668;BME280;5382;42.136;24.796;2023-05-03T11:06:55;100473.94;;;17.85;100.00
10668;BME280;5382;42.136;24.796;2023-05-03T11:09:30;100471.50;;;17.72;100.00
10668;BME280;5382;42.136;24.796;2023-05-03T11:12:02;100469.41;;;17.56;100.00
10668;BME280;5382;42.136;24.796;2023-05-03T11:14:29;100468.72;;;17.54;100.00
10668;BME280;5382;42.136;24.796;2023-05-03T11:16:56;100478.28;;;17.47;100.00
10668;BME280;5382;42.136;24.796;2023-05-03T11:19:23;100466.03;;;17.35;100.00
10668;BME280;5382;42.136;24.796;2023-05-03T11:21:50;100459.81;;;17.15;100.00
10668;BME280;5382;42.136;24.796;2023-05-03T11:24:17;100462.78;;;17.12;100.00
10668;BME280;5382;42.136;24.796;2023-05-03T11:26:44;100464.00;;;16.98;100.00
10668;BME280;5382;42.136;24.796;2023-05-03T11:29:13;100464.31;;;17.05;100.00
10668;BME280;5382;42.136;24.796;2023-05-03T11:31:42;100459.53;;;17.18;100.00
10668;BME280;5382;42.136;24.796;2023-05-03T11:34:09;100447.28;;;17.15;100.00
10668;BME280;5382;42.136;24.796;2023-05-03T11:36:36;100446.16;;;17.18;100.00
10668;BME280;5382;42.136;24.796;2023-05-03T11:39:03;100451.09;;;17.13;100.00
10668;BME280;5382;42.136;24.796;2023-05-03T11:41:31;100440.66;;;17.00;100.00
10668;BME280;5382;42.136;24.796;2023-05-03T11:43:58;100428.13;;;16.81;100.00
10668;BME280;5382;42.136;24.796;2023-05-03T11:46:27;100413.38;;;16.56;100.00
10668;BME280;5382;42.136;24.796;2023-05-03T11:48:57;100412.00;;;16.71;100.00
10668;BME280;5382;42.136;24.796;2023-05-03T11:51:24;100407.75;;;16.59;100.00
10668;BME280;5382;42.136;24.796;2023-05-03T11:53:52;100413.94;;;16.50;100.00
10668;BME280;5382;42.136;24.796;2023-05-03T11:56:19;100412.34;;;16.38;100.00
10668;BME280;5382;42.136;24.796;2023-05-03T11:58:53;100419.91;;;16.32;100.00
10668;BME280;5382;42.136;24.796;2023-05-03T12:01:22;100424.19;;;16.14;100.00
10668;BME280;5382;42.136;24.796;2023-05-03T12:03:58;100413.34;;;16.06;100.00
10668;BME280;5382;42.136;24.796;2023-05-03T12:06:26;100410.34;;;15.99;100.00
10668;BME280;5382;42.136;24.796;2023-05-03T12:08:54;100413.78;;;16.11;100.00
10668;BME280;5382;42.136;24.796;2023-05-03T12:11:21;100405.94;;;16.19;100.00
10668;BME280;5382;42.136;24.796;2023-05-03T12:13:55;100397.78;;;16.21;100.00
10668;BME280;5382;42.136;24.796;2023-05-03T12:16:24;100398.91;;;16.18;100.00
10668;BME280;5382;42.136;24.796;2023-05-03T12:18:52;100417.19;;;16.23;100.00
10668;BME280;5382;42.136;24.796;2023-05-03T12:21:23;100413.31;;;16.36;100.00
10668;BME280;5382;42.136;24.796;2023-05-03T12:23:50;100401.69;;;16.47;100.00
10668;BME280;5382;42.136;24.796;2023-05-03T12:26:17;100395.75;;;16.44;100.00
10668;BME280;5382;42.136;24.796;2023-05-03T12:28:46;100402.63;;;16.36;100.00
10668;BME280;5382;42.136;24.796;2023-05-03T12:31:13;100389.19;;;16.48;100.00
10668;BME280;5382;42.136;24.796;2023-05-03T12:33:41;100393.69;;;16.57;100.00
10668;BME280;5382;42.136;24.796;2023-05-03T12:36:08;100393.16;;;16.63;100.00
10668;BME280;5382;42.136;24.796;2023-05-03T12:38:36;100379.53;;;16.66;100.00
10668;BME280;5382;42.136;24.796;2023-05-03T12:41:03;100372.50;;;16.75;100.00
10668;BME280;5382;42.136;24.796;2023-05-03T12:43:30;100371.28;;;16.89;100.00
10668;BME280;5382;42.136;24.796;2023-05-03T12:45:57;100367.47;;;17.11;100.00